createdAt,value
2017-11-30T00:01:59.745Z,70.72
2017-11-30T00:04:27.194Z,67.82
2017-11-30T00:06:54.753Z,66.32
2017-11-30T00:09:22.303Z,68.45
2017-11-30T00:11:50.530Z,67.12
2017-11-30T00:14:17.994Z,71.25
2017-11-30T00:16:45.541Z,67.70
2017-11-30T00:19:13.086Z,65.60
2017-11-30T00:21:40.542Z,64.37
2017-11-30T00:24:08.778Z,65.20
2017-11-30T00:26:36.230Z,65.57
2017-11-30T00:29:03.685Z,69.68
2017-11-30T00:31:31.937Z,60.92
2017-11-30T00:33:59.945Z,60.08
2017-11-30T00:36:27.398Z,69.50
2017-11-30T00:38:54.857Z,70.22
2017-11-30T00:41:22.334Z,65.03
2017-11-30T00:43:50.550Z,65.43
2017-11-30T00:46:18.011Z,63.55
2017-11-30T00:48:45.486Z,59.00
2017-11-30T00:51:12.953Z,66.78
2017-11-30T00:53:40.409Z,69.65
2017-11-30T00:56:07.883Z,70.72
2017-11-30T00:58:35.333Z,68.45
2017-11-30T01:01:03.556Z,65.75
2017-11-30T01:03:31.226Z,68.62
2017-11-30T01:05:58.686Z,76.32
2017-11-30T01:08:26.142Z,62.65
2017-11-30T01:10:53.631Z,74.85
2017-11-30T01:13:21.076Z,60.05
2017-11-30T01:15:48.529Z,66.37
2017-11-30T01:18:15.998Z,62.72
2017-11-30T01:20:43.460Z,64.60
2017-11-30T01:23:10.930Z,55.03
2017-11-30T01:25:38.402Z,65.00
2017-11-30T01:28:05.861Z,57.35
2017-11-30T01:30:34.107Z,64.93
2017-11-30T01:33:01.566Z,64.00
2017-11-30T01:35:29.806Z,65.65
2017-11-30T01:37:57.281Z,70.05
2017-11-30T01:40:24.742Z,62.00
2017-11-30T01:42:52.198Z,57.62
2017-11-30T01:45:19.654Z,65.10
2017-11-30T01:47:47.125Z,62.20
2017-11-30T01:50:15.346Z,61.90
2017-11-30T01:52:42.803Z,63.05
2017-11-30T01:55:10.278Z,60.65
2017-11-30T01:57:38.518Z,61.60
2017-11-30T02:00:05.973Z,62.83
2017-11-30T02:02:33.501Z,62.75
2017-11-30T02:05:00.981Z,61.58
2017-11-30T02:07:28.561Z,61.17
2017-11-30T02:09:56.013Z,58.90
2017-11-30T02:12:23.478Z,59.50
2017-11-30T02:14:51.712Z,65.25
2017-11-30T02:17:19.174Z,62.10
2017-11-30T02:19:47.393Z,60.90
2017-11-30T02:22:14.874Z,56.28
2017-11-30T02:24:42.329Z,66.95
2017-11-30T02:27:10.565Z,58.33
2017-11-30T02:29:38.019Z,69.18
2017-11-30T02:32:06.238Z,63.60
2017-11-30T02:34:33.706Z,68.30
2017-11-30T02:37:01.155Z,70.47
2017-11-30T02:39:28.606Z,69.00
2017-11-30T02:41:56.844Z,70.15
2017-11-30T02:44:24.299Z,64.28
2017-11-30T02:46:51.754Z,59.15
2017-11-30T02:49:20.005Z,68.40
2017-11-30T02:51:48.227Z,59.55
2017-11-30T02:54:15.679Z,66.87
2017-11-30T02:56:43.161Z,74.95
2017-11-30T02:59:11.405Z,68.20
2017-11-30T03:01:38.858Z,64.43
2017-11-30T03:04:07.101Z,61.83
2017-11-30T03:06:34.554Z,63.50
2017-11-30T03:09:02.774Z,68.43
2017-11-30T03:11:30.346Z,69.00
2017-11-30T03:13:58.577Z,69.70
2017-11-30T03:16:26.030Z,63.33
2017-11-30T03:18:53.505Z,65.90
2017-11-30T03:21:21.757Z,64.00
2017-11-30T03:23:49.975Z,61.65
2017-11-30T03:26:17.447Z,65.32
2017-11-30T03:28:45.672Z,69.95
2017-11-30T03:31:13.163Z,70.12
2017-11-30T03:33:41.401Z,65.60
2017-11-30T03:36:08.958Z,73.47
2017-11-30T03:38:36.409Z,63.00
2017-11-30T03:41:04.672Z,66.65
2017-11-30T03:43:32.919Z,66.12
2017-11-30T03:46:00.462Z,63.80
2017-11-30T03:48:28.013Z,65.97
2017-11-30T03:50:55.549Z,71.78
2017-11-30T03:53:23.004Z,71.80
2017-11-30T03:55:51.242Z,85.47
2017-11-30T03:58:18.693Z,74.18
2017-11-30T04:00:46.953Z,78.15
2017-11-30T04:03:14.545Z,64.55
2017-11-30T04:05:41.999Z,74.65
2017-11-30T04:08:09.482Z,90.97
2017-11-30T04:10:37.027Z,80.32
2017-11-30T04:13:04.478Z,82.20
2017-11-30T04:15:32.694Z,70.00
2017-11-30T04:18:00.931Z,77.65
2017-11-30T04:20:28.425Z,80.15
2017-11-30T04:22:55.885Z,79.62
2017-11-30T04:25:24.115Z,73.65
2017-11-30T04:27:51.566Z,80.75
2017-11-30T04:30:19.061Z,73.10
2017-11-30T04:32:46.913Z,70.53
2017-11-30T04:35:14.434Z,78.43
2017-11-30T04:37:42.203Z,75.03
2017-11-30T04:40:09.661Z,78.12
2017-11-30T04:42:37.133Z,64.53
2017-11-30T04:45:04.596Z,81.22
2017-11-30T04:47:32.822Z,76.53
2017-11-30T04:50:00.381Z,73.15
2017-11-30T04:52:27.835Z,78.57
2017-11-30T04:54:56.082Z,71.93
2017-11-30T04:57:23.557Z,76.82
2017-11-30T04:59:51.018Z,72.47
2017-11-30T05:02:18.474Z,74.82
2017-11-30T05:04:45.950Z,68.20
2017-11-30T05:07:13.402Z,75.40
2017-11-30T05:09:41.621Z,68.50
2017-11-30T05:12:09.198Z,78.35
2017-11-30T05:14:36.656Z,75.87
2017-11-30T05:17:04.910Z,84.95
2017-11-30T05:19:33.157Z,80.57
2017-11-30T05:22:00.701Z,78.22
2017-11-30T05:24:28.256Z,76.97
2017-11-30T05:26:56.509Z,88.90
2017-11-30T05:29:24.766Z,83.72
2017-11-30T05:31:52.305Z,88.57
2017-11-30T05:34:19.762Z,89.55
2017-11-30T05:36:47.990Z,84.93
2017-11-30T05:39:15.554Z,88.12
2017-11-30T05:41:43.818Z,93.62
2017-11-30T05:44:12.070Z,91.05
2017-11-30T05:46:39.618Z,97.97
2017-11-30T05:49:07.165Z,91.05
2017-11-30T05:51:34.806Z,92.15
2017-11-30T05:54:02.262Z,97.47
2017-11-30T05:56:30.481Z,87.05
2017-11-30T05:58:57.947Z,92.25
2017-11-30T06:01:25.399Z,90.07
2017-11-30T06:03:53.624Z,82.93
2017-11-30T06:06:21.189Z,93.25
2017-11-30T06:08:48.657Z,85.55
2017-11-30T06:11:16.877Z,73.32
2017-11-30T06:13:44.356Z,77.18
2017-11-30T06:16:12.593Z,74.22
2017-11-30T06:18:40.142Z,85.38
2017-11-30T06:21:07.621Z,78.20
2017-11-30T06:23:35.074Z,86.12
2017-11-30T06:26:02.577Z,89.93
2017-11-30T06:28:30.822Z,89.80
2017-11-30T06:30:58.290Z,90.78
2017-11-30T06:33:25.746Z,102.80
2017-11-30T06:35:53.207Z,95.93
2017-11-30T06:38:20.673Z,100.10
2017-11-30T06:40:48.166Z,89.47
2017-11-30T06:43:15.623Z,100.30
2017-11-30T06:45:43.098Z,106.60
2017-11-30T06:48:10.563Z,103.00
2017-11-30T06:50:38.037Z,103.03
2017-11-30T06:53:05.494Z,95.03
2017-11-30T06:55:32.962Z,102.07
2017-11-30T06:58:00.422Z,96.63
2017-11-30T07:00:27.877Z,99.13
2017-11-30T07:02:55.359Z,102.20
2017-11-30T07:05:23.602Z,104.68
2017-11-30T07:07:51.150Z,118.82
2017-11-30T07:10:18.616Z,106.20
2017-11-30T07:12:46.074Z,107.30
2017-11-30T07:15:13.529Z,98.90
2017-11-30T07:17:41.013Z,108.47
2017-11-30T07:20:08.554Z,123.43
2017-11-30T07:22:36.022Z,110.45
2017-11-30T07:25:03.494Z,137.20
2017-11-30T07:27:30.950Z,135.88
2017-11-30T07:29:58.427Z,169.00
2017-11-30T07:32:26.646Z,151.40
2017-11-30T07:34:54.129Z,142.35
2017-11-30T07:37:21.598Z,146.82
2017-11-30T07:39:49.058Z,126.87
2017-11-30T07:42:16.517Z,153.30
2017-11-30T07:44:43.974Z,196.10
2017-11-30T07:47:11.429Z,251.00
2017-11-30T07:49:38.909Z,238.68
2017-11-30T07:52:06.417Z,245.55
2017-11-30T07:54:33.876Z,300.08
2017-11-30T07:57:02.127Z,198.98
2017-11-30T07:59:29.677Z,182.70
2017-11-30T08:01:57.899Z,170.12
2017-11-30T08:04:25.379Z,223.60
2017-11-30T08:06:53.603Z,220.50
2017-11-30T08:09:21.062Z,182.65
2017-11-30T08:11:48.534Z,206.82
2017-11-30T08:14:16.757Z,289.83
2017-11-30T08:16:44.213Z,171.80
2017-11-30T08:19:11.694Z,312.85
2017-11-30T08:21:39.166Z,185.25
2017-11-30T08:24:06.623Z,209.62
2017-11-30T08:26:34.078Z,279.95
2017-11-30T08:29:01.633Z,166.65
2017-11-30T08:31:29.854Z,178.90
2017-11-30T08:33:57.311Z,207.93
2017-11-30T08:36:24.778Z,311.90
2017-11-30T08:38:53.000Z,326.88
2017-11-30T08:41:20.498Z,238.87
2017-11-30T08:43:47.955Z,227.68
2017-11-30T08:46:15.426Z,285.35
2017-11-30T08:48:42.898Z,175.75
2017-11-30T08:51:10.361Z,211.15
2017-11-30T08:53:38.597Z,133.30
2017-11-30T08:56:06.065Z,128.20
2017-11-30T08:58:33.522Z,171.68
2017-11-30T09:01:01.022Z,108.90
2017-11-30T09:03:28.486Z,126.53
2017-11-30T09:05:55.955Z,99.40
2017-11-30T09:08:23.431Z,97.68
2017-11-30T09:10:50.909Z,105.28
2017-11-30T09:13:19.134Z,97.65
2017-11-30T09:15:46.597Z,94.30
2017-11-30T09:18:14.870Z,86.35
2017-11-30T09:20:43.102Z,88.43
2017-11-30T09:23:10.554Z,83.07
2017-11-30T09:25:38.022Z,76.68
2017-11-30T09:28:05.487Z,79.18
2017-11-30T09:30:32.938Z,67.07
2017-11-30T09:33:00.406Z,74.55
2017-11-30T09:35:27.873Z,68.87
2017-11-30T09:37:56.116Z,80.25
2017-11-30T09:40:24.341Z,73.32
2017-11-30T09:42:51.798Z,75.62
2017-11-30T09:45:19.469Z,82.53
2017-11-30T09:47:46.925Z,64.57
2017-11-30T09:50:15.169Z,67.82
2017-11-30T09:52:42.645Z,76.18
2017-11-30T09:55:10.106Z,74.82
2017-11-30T09:57:37.561Z,70.78
2017-11-30T10:00:05.039Z,69.82
2017-11-30T10:02:33.262Z,68.43
2017-11-30T10:05:00.718Z,64.75
2017-11-30T10:07:28.214Z,59.60
2017-11-30T10:09:55.673Z,66.62
2017-11-30T10:12:23.125Z,69.60
2017-11-30T10:14:50.601Z,63.72
2017-11-30T10:17:18.150Z,84.97
2017-11-30T10:19:45.694Z,85.50
2017-11-30T10:22:13.926Z,96.47
2017-11-30T10:24:41.381Z,72.03
2017-11-30T10:27:08.855Z,79.47
2017-11-30T10:29:36.319Z,74.87
2017-11-30T10:32:03.790Z,71.03
2017-11-30T10:34:31.254Z,86.15
2017-11-30T10:36:58.713Z,79.12
2017-11-30T10:39:26.962Z,75.32
2017-11-30T10:41:54.414Z,82.00
2017-11-30T10:44:22.661Z,99.68
2017-11-30T10:46:50.217Z,88.47
2017-11-30T10:49:18.475Z,81.78
2017-11-30T10:51:46.734Z,84.53
2017-11-30T10:54:15.039Z,87.00
2017-11-30T10:56:42.490Z,78.05
2017-11-30T10:59:09.951Z,86.20
2017-11-30T11:01:37.430Z,83.15
2017-11-30T11:04:05.653Z,78.78
2017-11-30T11:06:33.110Z,71.97
2017-11-30T11:09:00.579Z,71.97
2017-11-30T11:11:28.059Z,69.15
2017-11-30T11:13:55.534Z,60.92
2017-11-30T11:16:22.990Z,53.97
2017-11-30T11:18:51.222Z,54.85
2017-11-30T11:21:18.678Z,52.97
2017-11-30T11:23:46.134Z,48.17
2017-11-30T11:26:14.386Z,46.28
2017-11-30T11:28:42.642Z,46.50
2017-11-30T11:31:10.209Z,44.45
2017-11-30T11:33:37.662Z,44.85
2017-11-30T11:36:05.119Z,46.58
2017-11-30T11:38:32.590Z,42.38
2017-11-30T11:41:00.046Z,30.88
2017-11-30T11:43:27.501Z,33.83
2017-11-30T11:45:55.755Z,25.83
2017-11-30T11:48:23.980Z,33.65
2017-11-30T11:50:51.438Z,27.95
2017-11-30T11:53:18.909Z,33.42
2017-11-30T11:55:47.133Z,37.20
2017-11-30T11:58:14.593Z,33.33
2017-11-30T12:00:42.242Z,28.52
2017-11-30T12:03:09.697Z,30.98
2017-11-30T12:05:37.918Z,33.33
2017-11-30T12:08:05.396Z,33.17
2017-11-30T12:10:34.553Z,34.13
2017-11-30T12:13:02.011Z,26.30
2017-11-30T12:15:30.250Z,25.62
2017-11-30T12:17:57.700Z,25.55
2017-11-30T12:20:25.206Z,19.55
2017-11-30T12:22:52.683Z,22.08
2017-11-30T12:25:20.906Z,24.90
2017-11-30T12:27:48.362Z,25.23
2017-11-30T12:30:15.857Z,25.67
2017-11-30T12:32:44.069Z,21.15
2017-11-30T12:35:11.529Z,27.83
2017-11-30T12:37:38.992Z,24.87
2017-11-30T12:40:07.327Z,30.15
2017-11-30T12:42:34.773Z,22.95
2017-11-30T12:45:02.234Z,28.65
2017-11-30T12:47:30.458Z,24.23
2017-11-30T12:49:57.919Z,25.80
2017-11-30T12:52:25.398Z,32.67
2017-11-30T12:54:52.857Z,21.58
2017-11-30T12:57:20.316Z,20.45
2017-11-30T12:59:47.788Z,28.08
2017-11-30T13:02:15.285Z,26.65
2017-11-30T13:04:42.736Z,24.08
2017-11-30T13:07:10.199Z,20.90
2017-11-30T13:09:37.659Z,22.70
2017-11-30T13:12:05.895Z,21.40
2017-11-30T13:14:33.458Z,18.77
2017-11-30T13:17:00.912Z,17.98
2017-11-30T13:19:29.168Z,21.45
2017-11-30T13:21:57.388Z,19.05
2017-11-30T13:24:24.846Z,20.83
2017-11-30T13:26:52.315Z,26.27
2017-11-30T13:29:20.529Z,24.35
2017-11-30T13:31:47.989Z,23.95
2017-11-30T13:34:15.492Z,25.05
2017-11-30T13:36:42.948Z,20.42
2017-11-30T13:39:10.428Z,25.73
2017-11-30T13:41:37.888Z,23.60
2017-11-30T13:44:06.117Z,23.75
2017-11-30T13:46:33.574Z,27.70
2017-11-30T13:49:01.843Z,22.95
2017-11-30T13:51:30.098Z,28.15
2017-11-30T13:53:58.366Z,26.27
2017-11-30T13:56:25.788Z,32.75
2017-11-30T13:58:53.289Z,21.80
2017-11-30T14:01:20.775Z,24.30
2017-11-30T14:03:48.232Z,24.55
2017-11-30T14:06:16.483Z,23.38
2017-11-30T14:08:44.033Z,22.67
2017-11-30T14:11:12.310Z,23.90
2017-11-30T14:13:40.548Z,24.25
2017-11-30T14:16:08.784Z,21.90
2017-11-30T14:18:36.236Z,27.87
2017-11-30T14:21:03.687Z,25.52
2017-11-30T14:23:31.929Z,27.00
2017-11-30T14:25:59.381Z,32.47
2017-11-30T14:28:26.833Z,25.37
2017-11-30T14:30:55.082Z,27.92
2017-11-30T14:33:22.536Z,29.83
2017-11-30T14:35:50.776Z,32.40
2017-11-30T14:38:18.247Z,27.02
2017-11-30T14:40:46.471Z,30.83
2017-11-30T14:43:13.919Z,29.85
2017-11-30T14:45:41.396Z,39.13
2017-11-30T14:48:09.615Z,33.25
2017-11-30T14:50:37.181Z,31.15
2017-11-30T14:53:04.720Z,34.63
2017-11-30T14:55:32.264Z,27.00
2017-11-30T14:58:00.488Z,31.25
2017-11-30T15:00:27.944Z,30.23
2017-11-30T15:02:56.168Z,28.83
2017-11-30T15:05:23.673Z,33.55
2017-11-30T15:07:51.119Z,32.67
2017-11-30T15:10:19.472Z,29.27
2017-11-30T15:12:46.920Z,29.92
2017-11-30T15:15:15.195Z,29.83
2017-11-30T15:17:43.418Z,41.50
2017-11-30T15:20:10.876Z,30.48
2017-11-30T15:22:39.106Z,33.15
2017-11-30T15:25:06.678Z,28.87
2017-11-30T15:27:34.132Z,26.85
2017-11-30T15:30:04.200Z,26.80
2017-11-30T15:32:31.651Z,31.48
2017-11-30T15:34:59.201Z,26.58
2017-11-30T15:37:26.748Z,27.95
2017-11-30T15:39:54.204Z,26.45
2017-11-30T15:42:22.432Z,29.77
2017-11-30T15:44:49.893Z,32.50
2017-11-30T15:47:17.360Z,27.70
2017-11-30T15:49:44.808Z,29.33
2017-11-30T15:52:12.276Z,27.50
2017-11-30T15:54:39.768Z,33.83
2017-11-30T15:57:08.000Z,29.20
2017-11-30T15:59:35.451Z,30.17
2017-11-30T16:02:02.908Z,29.83
2017-11-30T16:04:31.171Z,28.77
2017-11-30T16:06:59.396Z,28.02
2017-11-30T16:09:26.965Z,33.38
2017-11-30T16:11:54.509Z,32.78
2017-11-30T16:14:22.860Z,30.67
2017-11-30T16:16:50.353Z,32.50
2017-11-30T16:19:17.808Z,28.83
2017-11-30T16:21:45.296Z,29.48
2017-11-30T16:24:12.784Z,30.25
2017-11-30T16:26:40.231Z,34.30
2017-11-30T16:29:07.719Z,35.50
2017-11-30T16:31:35.184Z,29.33
2017-11-30T16:34:03.441Z,29.23
2017-11-30T16:36:30.945Z,43.10
2017-11-30T16:38:58.404Z,38.95
2017-11-30T16:41:25.868Z,37.42
2017-11-30T16:43:54.092Z,32.90
2017-11-30T16:46:21.571Z,26.52
2017-11-30T16:48:49.803Z,35.90
2017-11-30T16:51:17.264Z,30.23
2017-11-30T16:53:45.520Z,31.77
2017-11-30T16:56:19.377Z,33.17
2017-11-30T16:58:46.843Z,26.92
2017-11-30T17:01:14.400Z,14.90
2017-11-30T17:03:42.646Z,21.67
2017-11-30T17:06:10.100Z,21.42
2017-11-30T17:08:38.347Z,15.70
2017-11-30T17:11:06.593Z,16.00
2017-11-30T17:13:34.048Z,17.48
2017-11-30T17:16:01.591Z,18.95
2017-11-30T17:18:29.056Z,16.33
2017-11-30T17:20:57.281Z,17.65
2017-11-30T17:23:24.740Z,15.80
2017-11-30T17:25:53.000Z,14.82
2017-11-30T17:28:20.448Z,10.82
2017-11-30T17:30:48.673Z,13.88
2017-11-30T17:33:16.136Z,15.13
2017-11-30T17:35:43.592Z,13.60
2017-11-30T17:38:11.831Z,14.75
2017-11-30T17:40:39.385Z,17.15
2017-11-30T17:43:06.839Z,46.33
2017-11-30T17:45:35.076Z,37.53
2017-11-30T17:48:02.538Z,37.25
2017-11-30T17:50:30.764Z,31.98
2017-11-30T17:52:58.337Z,29.58
2017-11-30T17:55:26.592Z,27.85
2017-11-30T17:57:54.136Z,26.73
2017-11-30T18:00:21.620Z,26.33
2017-11-30T18:02:49.120Z,24.60
2017-11-30T18:05:16.665Z,27.87
2017-11-30T18:07:44.904Z,26.65
2017-11-30T18:10:12.377Z,24.55
2017-11-30T18:12:39.820Z,25.55
2017-11-30T18:15:07.296Z,25.70
2017-11-30T18:17:34.772Z,28.45
2017-11-30T18:20:02.324Z,25.27
2017-11-30T18:22:30.564Z,28.15
2017-11-30T18:24:58.128Z,33.13
2017-11-30T18:27:26.343Z,32.95
2017-11-30T18:29:53.865Z,33.05
2017-11-30T18:32:21.320Z,34.70
2017-11-30T18:34:48.776Z,40.15
2017-11-30T18:37:16.262Z,40.70
2017-11-30T18:39:44.480Z,42.95
2017-11-30T18:42:11.944Z,41.92
2017-11-30T18:44:39.428Z,41.10
2017-11-30T18:47:07.137Z,39.67
2017-11-30T18:49:34.604Z,41.37
2017-11-30T18:52:02.095Z,45.90
2017-11-30T18:54:30.340Z,51.05
2017-11-30T18:56:57.800Z,43.83
2017-11-30T18:59:25.277Z,47.25
2017-11-30T19:01:52.736Z,47.60
2017-11-30T19:04:20.960Z,40.97
2017-11-30T19:06:48.516Z,43.85
2017-11-30T19:09:16.016Z,45.15
2017-11-30T19:11:43.515Z,44.03
2017-11-30T19:14:11.739Z,43.83
2017-11-30T19:16:39.212Z,44.88
2017-11-30T19:19:06.672Z,47.15
2017-11-30T19:21:34.152Z,48.53
2017-11-30T19:24:02.402Z,50.42
2017-11-30T19:26:29.856Z,44.33
2017-11-30T19:28:58.079Z,45.85
2017-11-30T19:31:25.548Z,50.78
2017-11-30T19:33:53.025Z,45.72
2017-11-30T19:36:21.275Z,45.85
2017-11-30T19:38:49.502Z,45.03
2017-11-30T19:41:16.972Z,44.53
2017-11-30T19:43:44.428Z,48.05
2017-11-30T19:46:12.033Z,49.97
2017-11-30T19:48:39.507Z,51.50
2017-11-30T19:51:06.965Z,46.30
2017-11-30T19:53:34.424Z,54.80
2017-11-30T19:56:01.905Z,50.47
2017-11-30T19:58:29.483Z,56.03
2017-11-30T20:00:56.891Z,52.97
2017-11-30T20:03:24.432Z,48.10
2017-11-30T20:05:52.744Z,50.92
2017-11-30T20:08:20.248Z,45.72
2017-11-30T20:10:48.496Z,48.80
2017-11-30T20:13:16.746Z,46.08
2017-11-30T20:15:44.201Z,46.75
2017-11-30T20:18:12.448Z,45.55
2017-11-30T20:20:39.992Z,47.62
2017-11-30T20:23:08.221Z,44.05
2017-11-30T20:25:35.711Z,47.90
2017-11-30T20:28:03.923Z,47.75
2017-11-30T20:30:31.503Z,47.58
2017-11-30T20:32:58.979Z,52.70
2017-11-30T20:35:26.496Z,54.92
2017-11-30T20:37:54.755Z,50.33
2017-11-30T20:40:22.983Z,54.28
2017-11-30T20:42:50.456Z,48.40
2017-11-30T20:45:18.717Z,51.40
2017-11-30T20:47:46.952Z,53.58
2017-11-30T20:50:14.568Z,50.80
2017-11-30T20:52:42.109Z,52.53
2017-11-30T20:55:09.604Z,51.13
2017-11-30T20:57:37.856Z,53.65
2017-11-30T21:00:05.333Z,44.33
2017-11-30T21:02:32.779Z,49.47
2017-11-30T21:05:00.251Z,46.85
2017-11-30T21:07:27.727Z,50.60
2017-11-30T21:09:55.992Z,58.05
2017-11-30T21:12:24.219Z,55.75
2017-11-30T21:14:51.701Z,59.08
2017-11-30T21:17:19.952Z,57.38
2017-11-30T21:19:48.203Z,52.33
2017-11-30T21:22:15.806Z,51.92
2017-11-30T21:24:43.276Z,54.95
2017-11-30T21:27:10.743Z,61.88
2017-11-30T21:29:38.969Z,123.97
2017-11-30T21:32:06.457Z,70.87
2017-11-30T21:34:34.703Z,66.75
2017-11-30T21:37:02.940Z,50.42
2017-11-30T21:39:31.940Z,50.58
2017-11-30T21:42:00.205Z,59.60
2017-11-30T21:44:28.459Z,52.70
2017-11-30T21:46:56.700Z,53.20
2017-11-30T21:49:24.263Z,56.95
2017-11-30T21:51:51.807Z,54.55
2017-11-30T21:54:19.355Z,56.03
2017-11-30T21:56:47.609Z,50.58
2017-11-30T21:59:15.921Z,50.72
2017-11-30T22:01:43.391Z,49.35
2017-11-30T22:04:10.948Z,53.95
2017-11-30T22:06:39.211Z,47.83
2017-11-30T22:09:07.465Z,54.95
2017-11-30T22:11:34.915Z,52.60
2017-11-30T22:14:03.191Z,59.50
2017-11-30T22:16:31.436Z,50.12
2017-11-30T22:18:58.997Z,50.53
2017-11-30T22:21:27.236Z,48.15
2017-11-30T22:23:54.785Z,47.90
2017-11-30T22:26:23.044Z,51.95
2017-11-30T22:28:51.280Z,49.40
2017-11-30T22:31:18.740Z,49.65
2017-11-30T22:33:46.288Z,49.58
2017-11-30T22:36:14.543Z,49.92
2017-11-30T22:38:42.009Z,48.60
2017-11-30T22:41:10.258Z,48.03
2017-11-30T22:43:37.745Z,47.60
2017-11-30T22:46:05.220Z,54.85
2017-11-30T22:48:32.695Z,44.75
2017-11-30T22:53:34.740Z,47.95
2017-11-30T22:56:02.968Z,51.00
2017-11-30T22:58:30.529Z,49.42
2017-11-30T23:00:57.993Z,49.63
2017-11-30T23:03:25.515Z,43.65
2017-11-30T23:05:53.031Z,47.67
2017-11-30T23:08:20.552Z,45.50
2017-11-30T23:10:48.012Z,47.55
2017-11-30T23:13:15.504Z,49.10
2017-11-30T23:15:43.023Z,55.72
2017-11-30T23:18:10.488Z,53.83
2017-11-30T23:20:37.961Z,47.40
2017-11-30T23:23:05.412Z,49.38
2017-11-30T23:25:32.909Z,46.37
2017-11-30T23:28:01.145Z,44.55
2017-11-30T23:30:28.704Z,40.40
2017-11-30T23:32:56.959Z,48.45
2017-11-30T23:35:25.225Z,44.72
2017-11-30T23:37:53.454Z,43.67
2017-11-30T23:40:20.916Z,42.62
2017-11-30T23:42:48.385Z,42.65
2017-11-30T23:45:15.940Z,43.33
2017-11-30T23:47:43.408Z,36.90
2017-11-30T23:50:10.872Z,45.80
2017-11-30T23:52:38.439Z,45.10
2017-11-30T23:55:06.691Z,44.53
2017-11-30T23:57:34.949Z,43.35
